地図

経路データ

SID SEASON NUMBER BASIN SUBBASIN NAME ISO_TIME NATURE LAT LON WMO_WIND WMO_PRES WMO_AGENCY TRACK_TYPE DIST2LAND LANDFALL IFLAG USA_AGENCY USA_ATCF_ID USA_LAT USA_LON USA_RECORD USA_STATUS USA_WIND USA_PRES USA_SSHS USA_R34_NE USA_R34_SE USA_R34_SW USA_R34_NW USA_R50_NE USA_R50_SE USA_R50_SW USA_R50_NW USA_R64_NE USA_R64_SE USA_R64_SW USA_R64_NW USA_POCI USA_ROCI USA_RMW USA_EYE TOKYO_LAT TOKYO_LON TOKYO_GRADE TOKYO_WIND TOKYO_PRES TOKYO_R50_DIR TOKYO_R50_LONG TOKYO_R50_SHORT TOKYO_R30_DIR TOKYO_R30_LONG TOKYO_R30_SHORT TOKYO_LAND CMA_LAT CMA_LON CMA_CAT CMA_WIND CMA_PRES HKO_LAT HKO_LON HKO_CAT HKO_WIND HKO_PRES NEWDELHI_LAT NEWDELHI_LON NEWDELHI_GRADE NEWDELHI_WIND NEWDELHI_PRES NEWDELHI_CI NEWDELHI_DP NEWDELHI_POCI REUNION_LAT REUNION_LON REUNION_TYPE REUNION_WIND REUNION_PRES REUNION_TNUM REUNION_CI REUNION_RMW REUNION_R34_NE REUNION_R34_SE REUNION_R34_SW REUNION_R34_NW REUNION_R50_NE REUNION_R50_SE REUNION_R50_SW REUNION_R50_NW REUNION_R64_NE REUNION_R64_SE REUNION_R64_SW REUNION_R64_NW BOM_LAT BOM_LON BOM_TYPE BOM_WIND BOM_PRES BOM_TNUM BOM_CI BOM_RMW BOM_R34_NE BOM_R34_SE BOM_R34_SW BOM_R34_NW BOM_R50_NE BOM_R50_SE BOM_R50_SW BOM_R50_NW BOM_R64_NE BOM_R64_SE BOM_R64_SW BOM_R64_NW BOM_ROCI BOM_POCI BOM_EYE BOM_POS_METHOD BOM_PRES_METHOD NADI_LAT NADI_LON NADI_CAT NADI_WIND NADI_PRES WELLINGTON_LAT WELLINGTON_LON WELLINGTON_WIND WELLINGTON_PRES DS824_LAT DS824_LON DS824_STAGE DS824_WIND DS824_PRES TD9636_LAT TD9636_LON TD9636_STAGE TD9636_WIND TD9636_PRES TD9635_LAT TD9635_LON TD9635_WIND TD9635_PRES TD9635_ROCI NEUMANN_LAT NEUMANN_LON NEUMANN_CLASS NEUMANN_WIND NEUMANN_PRES MLC_LAT MLC_LON MLC_CLASS MLC_WIND MLC_PRES USA_GUST BOM_GUST BOM_GUST_PER REUNION_GUST REUNION_GUST_PER USA_SEAHGT USA_SEARAD_NE USA_SEARAD_SE USA_SEARAD_SW USA_SEARAD_NW STORM_SPEED STORM_DIR
1967073S15138 1967 23 SP EA CYNTHIA 1967-03-13 23:00:00 NR -14.6000 137.600 main 72 72 __________O___ -1 -14.6000 137.600 7 14 133
1967073S15138 1967 23 SP EA CYNTHIA 1967-03-13 23:30:00 NR -14.6809 137.691 999 bom main 87 87 ______O___P___ -1 -14.9000 137.900 999 -14.5714 137.586 7 7 123
1967073S15138 1967 23 SP EA CYNTHIA 1967-03-14 00:00:00 TS -14.6617 137.698 main 87 68 O_____P__OP___ jtwc_sh SH251967 -14.5000 137.600 -1 -14.8825 137.886 998 -14.9000 137.900 TC 30 999 -14.5429 137.572 7 3 334
1967073S15138 1967 23 SP EA CYNTHIA 1967-03-14 03:00:00 TS -14.5217 137.610 main 68 65 P_____P__PP___ SH251967 -14.3400 137.487 -1 -14.7780 137.797 998 -14.7953 137.812 TC 31 998 -14.3744 137.490 7 3 329
1967073S15138 1967 23 SP EA CYNTHIA 1967-03-14 06:00:00 TS -14.4193 137.551 main 65 53 O_____P__PP_O_ jtwc_sh SH251967 -14.2000 137.400 -1 -14.6757 137.704 997 -14.6925 137.720 TC 32 997 -14.2168 137.412 7 -14.7000 137.900 TC 35 997 2 330
1967073S15138 1967 23 SP EA CYNTHIA 1967-03-14 09:00:00 TS -14.3152 137.484 main 53 43 P_____P__PP_P_ SH251967 -14.0925 137.350 -1 -14.5774 137.599 996 -14.5934 137.617 TC 33 996 -14.0780 137.341 7 -14.6000 137.810 TC 35 996 2 326
1967073S15138 1967 23 SP EA CYNTHIA 1967-03-14 11:00:00 TS -14.2621 137.445 main 43 43 P_____P__PO_P_ SH251967 -14.0307 137.320 -1 -14.5151 137.521 996 -14.5304 137.541 TC 34 996 -14.0000 137.300 7 -14.5333 137.740 TC 35 996 2 327
1967073S15138 1967 23 SP EA CYNTHIA 1967-03-14 11:30:00 TS -14.2575 137.442 996 bom main 43 43 P_____O__PP_P_ SH251967 -14.0154 137.310 -1 -14.5000 137.500 996 -14.5151 137.521 TC 34 996 -13.9826 137.290 7 -14.5167 137.721 TC 35 996 2 0
1967073S15138 1967 23 SP EA CYNTHIA 1967-03-14 12:00:00 TS -14.2419 137.427 main 44 34 O_____P__OP_O_ jtwc_sh SH251967 -14.0000 137.300 -1 -14.4851 137.479 995 -14.5000 137.500 TC 35 996 -13.9661 137.281 7 -14.5000 137.700 TC 35 996 3 313
1967073S15138 1967 23 SP EA CYNTHIA 1967-03-14 15:00:00 TS -14.1461 137.319 main 39 31 P_____P__PP_P_ SH251967 -13.8925 137.215 -1 -14.3976 137.340 995 -14.4122 137.364 TC 36 995 -13.8815 137.224 7 -14.4000 137.558 TC 37 995 3 309
1967073S15138 1967 23 SP EA CYNTHIA 1967-03-14 18:00:00 TS -14.0570 137.192 main 31 31 O_____P__PP_O_ jtwc_sh SH251967 -13.8000 137.100 -1 -14.3067 137.189 994 -14.3225 137.215 TC 37 994 -13.8128 137.145 7 -14.3000 137.400 TC 40 994 3 303
1967073S15138 1967 23 SP EA CYNTHIA 1967-03-14 21:00:00 TS -13.9799 137.056 main 31 15 P_____P__PP_P_ SH251967 -13.7499 136.988 -1 -14.2030 137.032 993 -14.2216 137.058 TC 38 993 -13.7476 137.021 7 -14.2075 137.250 TC 40 993 3 299
1967073S15138 1967 23 SP EA CYNTHIA 1967-03-14 23:00:00 TS -13.9240 136.947 main 10 10 P_____P__PO_P_ SH251967 -13.7197 136.876 -1 -14.1221 136.926 993 -14.1434 136.952 TC 39 993 -13.7000 136.900 7 -14.1390 137.150 TC 40 993 4 297
1967073S15138 1967 23 SP EA CYNTHIA 1967-03-14 23:30:00 TS -13.9092 136.914 993 bom main 10 10 P_____O__PP_P_ SH251967 -13.7104 136.840 -1 -14.1000 136.900 993 4 -14.1221 136.926 TC 39 993 -13.6923 136.854 7 -14.1200 137.125 TC 40 993 4 293
1967073S15138 1967 23 SP EA CYNTHIA 1967-03-15 00:00:00 TS -13.8937 136.880 main 10 0 O_____P__OP_O_ jtwc_sh SH251967 -13.7000 136.800 -1 -14.0769 136.873 993 -14.1000 136.900 TC 40 993 -13.6850 136.805 7 -14.1000 137.100 TC 40 993 5 294
1967073S15138 1967 23 SP EA CYNTHIA 1967-03-15 03:00:00 TS -13.7885 136.629 main 0 0 P_____P__PP_P_ SH251967 -13.6151 136.473 -1 -13.9243 136.709 993 -13.9710 136.709 TC 40 993 -13.6404 136.462 7 -13.9650 136.950 TC 40 993 6 295
1967073S15138 1967 23 SP EA CYNTHIA 1967-03-15 06:00:00 TS -13.6564 136.361 main 21 21 O_____P__PP_O_ jtwc_sh SH251967 -13.5000 136.100 -1 -13.7513 136.549 993 -13.8176 136.525 TC 40 993 -13.5696 136.089 7 -13.8000 136.800 TC 40 993 6 299
1967073S15138 1967 23 SP EA CYNTHIA 1967-03-15 09:00:00 TS -13.5087 136.113 main 21 10 P_____P__PP_P_ SH251967 -13.4025 135.747 -1 -13.5635 136.403 993 -13.6303 136.378 TC 40 993 -13.4381 135.760 7 -13.6150 136.643 TC 40 993 6 307
1967073S15138 1967 23 SP EA CYNTHIA 1967-03-15 11:00:00 TS -13.3773 135.984 main 10 10 P_____P__PO_P_ SH251967 -13.2869 135.563 -1 -13.4330 136.319 993 -13.4821 136.316 TC 40 993 -13.3000 135.600 7 -13.4750 136.544 TC 40 993 6 319
1967073S15138 1967 23 SP EA CYNTHIA 1967-03-15 11:30:00 TS -13.3361 135.960 994 bom main 0 0 P_____O__PP_P_ SH251967 -13.2464 135.529 -1 -13.4000 136.300 994 -13.4418 136.307 TC 40 993 -13.2444 135.572 7 -13.4379 136.522 TC 40 993 6 331
1967073S15138 1967 23 SP EA CYNTHIA 1967-03-15 12:00:00 TS -13.2927 135.938 main 0 0 O_____P__OP_O_ jtwc_sh SH251967 -13.2000 135.500 -1 -13.3719 136.282 994 -13.4000 136.300 TC 40 994 -13.1846 135.547 7 -13.4000 136.500 TC 40 994 7 343
1967073S15138 1967 23 SP EA CYNTHIA 1967-03-15 14:30:00 TS -13.0109 135.863 994 bom main 0 0 P_____O__PP_P_ SH251967 -12.8529 135.432 -1 -13.2000 136.200 994 -13.1014 136.288 TC 38 994 -12.8388 135.465 7 -13.2195 136.362 TC 37 994 7 347
1967073S15138 1967 23 SP EA CYNTHIA 1967-03-15 15:00:00 TS -12.9456 135.853 main 0 0 P_____P__PP_P_ SH251967 -12.7724 135.433 -1 -13.1486 136.163 994 -13.0367 136.292 TC 38 994 -12.7633 135.458 7 -13.1800 136.340 TC 37 994 8 0
1967073S15138 1967 23 SP EA CYNTHIA 1967-03-15 18:00:00 TS -12.5320 135.842 main 0 0 O_____P__PP_O_ jtwc_sh SH251967 -12.3000 135.500 -1 -12.7453 135.921 995 -12.6447 136.358 TC 37 995 -12.3022 135.471 7 -12.9000 136.300 TC 35 995 8 6
1967073S15138 1967 23 SP EA CYNTHIA 1967-03-15 20:30:00 TS -12.2023 135.935 997 bom main 0 0 P_____O__PP_P_ SH251967 -11.9864 135.575 -1 -12.4000 136.000 997 -12.3548 136.468 TC 36 996 -11.9552 135.554 7 -12.5310 136.440 TC 35 995 8 19
1967073S15138 1967 23 SP EA CYNTHIA 1967-03-15 21:00:00 TS -12.1428 135.976 main 15 15 P_____P__PP_P_ SH251967 -11.9324 135.598 -1 -12.3362 136.103 997 -12.3054 136.495 TC 36 996 -11.8951 135.578 7 -12.4550 136.483 TC 35 996 8 43
1967073S15138 1967 23 SP EA CYNTHIA 1967-03-15 23:00:00 TS -11.9472 136.175 main 31 31 P_____P__PO_P_ SH251967 -11.7578 135.719 -1 -12.1290 136.600 997 -12.1486 136.624 TC 35 996 -11.7000 135.700 7 -12.1898 136.687 TC 35 996 8 47
1967073S15138 1967 23 SP EA CYNTHIA 1967-03-15 23:30:00 TS -11.9145 136.227 997 bom main 31 24 P_____O__PP_P_ SH251967 -11.7262 135.758 -1 -12.1000 136.700 997 -12.1215 136.661 TC 35 996 -11.6729 135.741 7 -12.1402 136.743 TC 35 996 7 59
1967073S15138 1967 23 SP EA CYNTHIA 1967-03-16 00:00:00 TS -11.8889 136.274 main 24 11 O_____P__OP_O_ jtwc_sh SH251967 -11.7000 135.800 -1 -12.0831 136.760 997 -12.1000 136.700 TC 35 997 -11.6503 135.785 7 -12.1000 136.800 TC 35 997 6 76
1967073S15138 1967 23 SP EA CYNTHIA 1967-03-16 02:00:00 TS -11.8538 136.476 997 bom main 11 11 P_____O__PP_P_ SH251967 -11.6418 136.013 -1 -12.1000 136.900 997 -12.0976 136.917 TC 35 996 -11.6008 135.995 7 -12.0405 137.017 TC 35 996 6 85
1967073S15138 1967 23 SP EA CYNTHIA 1967-03-16 03:00:00 TS -11.8591 136.598 main 15 15 P_____P__PP_P_ SH251967 -11.6401 136.135 -1 -12.1004 137.030 996 -12.1237 137.041 TC 35 996 -11.5979 136.114 7 -12.0525 137.135 TC 35 996 8 101
1967073S15138 1967 23 SP EA CYNTHIA 1967-03-16 06:00:00 TS -11.9502 136.991 main 33 33 O_____P__PP_O_ jtwc_sh SH251967 -11.7000 136.500 -1 -12.1572 137.523 996 -12.2857 137.431 TC 35 996 -11.6584 136.490 7 -12.2000 137.500 TC 35 996 8 107
1967073S15138 1967 23 SP EA CYNTHIA 1967-03-16 08:00:00 TS -12.0499 137.236 996 bom main 40 39 P_____O__PP_P_ SH251967 -11.7400 136.715 -1 -12.3000 137.800 996 -12.4428 137.675 TC 35 996 -11.7414 136.726 7 -12.3351 137.787 TC 35 996 8 116
1967073S15138 1967 23 SP EA CYNTHIA 1967-03-16 09:00:00 TS -12.1177 137.341 main 39 39 P_____P__PP_P_ SH251967 -11.7700 136.810 -1 -12.4251 137.886 996 -12.5298 137.781 TC 35 996 -11.7912 136.832 7 -12.4201 137.925 TC 35 996 7 131
1967073S15138 1967 23 SP EA CYNTHIA 1967-03-16 11:00:00 TS -12.2738 137.498 main 54 54 P_____P__PO_P_ SH251967 -11.8500 136.956 -1 -12.7258 137.988 996 -12.7105 137.947 TC 35 996 -11.9000 137.000 7 -12.6062 138.140 TC 35 996 6 138
1967073S15138 1967 23 SP EA CYNTHIA 1967-03-16 11:30:00 TS -12.3137 137.521 996 bom main 54 54 P_____O__PP_P_ SH251967 -11.8742 136.981 -1 -12.8000 138.000 996 -12.7555 137.977 TC 35 996 -11.9248 137.013 7 -12.6534 138.175 TC 35 996 5 154
1967073S15138 1967 23 SP EA CYNTHIA 1967-03-16 12:00:00 TS -12.3535 137.539 main 55 55 O_____P__OP_O_ jtwc_sh SH251967 -11.9000 137.000 -1 -12.8696 138.011 995 -12.8000 138.000 TC 35 996 -11.9513 137.021 7 -12.7000 138.200 TC 35 996 5 184
1967073S15138 1967 23 SP EA CYNTHIA 1967-03-16 15:00:00 TS -12.6011 137.496 main 63 62 P_____P__PP_P_ SH251967 -12.0925 136.980 -1 -13.2591 137.959 995 -13.0756 137.925 TC 36 995 -12.1369 137.002 7 -12.9499 138.133 TC 37 995 5 200
1967073S15138 1967 23 SP EA CYNTHIA 1967-03-16 18:00:00 TS -12.8424 137.351 main 68 54 O_____P__PP_O_ jtwc_sh SH251967 -12.3000 136.900 -1 -13.5607 137.766 995 -13.3551 137.719 TC 37 995 -12.3386 136.923 7 -13.2000 137.900 TC 40 995 5 211
1967073S15138 1967 23 SP EA CYNTHIA 1967-03-16 21:00:00 TS -13.0514 137.221 main 55 55 P_____P__PP_P_ SH251967 -12.4874 136.890 -1 -13.7185 137.508 995 -13.5820 137.478 TC 38 995 -12.5157 136.874 7 -13.5175 137.685 TC 40 995 4 211
1967073S15138 1967 23 SP EA CYNTHIA 1967-03-16 23:00:00 TS -13.1352 137.171 main 55 55 P_____P__PO_P_ SH251967 -12.5754 136.944 -1 -13.7163 137.339 995 -13.6762 137.346 TC 39 995 -12.6000 136.900 7 -13.6681 137.552 TC 40 995 3 208
1967073S15138 1967 23 SP EA CYNTHIA 1967-03-16 23:30:00 TS -13.1435 137.169 995 bom main 55 55 P_____O__PP_P_ SH251967 -12.5896 136.969 -1 -13.7000 137.300 995 -13.6903 137.321 TC 39 995 -12.6027 136.933 7 -13.6885 137.525 TC 40 995 1 0
1967073S15138 1967 23 SP EA CYNTHIA 1967-03-17 00:00:00 TS -13.1468 137.172 main 55 55 O_____P__OP_O_ jtwc_sh SH251967 -12.6000 137.000 -1 -13.6782 137.260 995 -13.7000 137.300 TC 40 995 -12.6026 136.970 7 -13.7000 137.500 TC 40 995 2 47
1967073S15138 1967 23 SP EA CYNTHIA 1967-03-17 02:30:00 TS -13.0726 137.246 995 bom main 55 55 P_____O__PP_P_ SH251967 -12.5771 137.251 -1 -13.5000 137.100 995 -13.6129 137.269 TC 40 995 -12.5705 137.206 7 -13.5984 137.401 TC 40 995 3 44
1967073S15138 1967 23 SP EA CYNTHIA 1967-03-17 03:00:00 TS -13.0480 137.272 main 65 65 P_____P__PP_P_ SH251967 -12.5651 137.313 -1 -13.4541 137.086 995 -13.5840 137.270 TC 40 995 -12.5598 137.261 7 -13.5599 137.390 TC 40 995 5 51
1967073S15138 1967 23 SP EA CYNTHIA 1967-03-17 06:00:00 TS -12.8838 137.482 main 83 77 O_____P__PP_O_ jtwc_sh SH251967 -12.5000 137.700 -1 -13.1444 137.147 995 -13.3667 137.323 TC 40 995 -12.4917 137.622 7 -13.3000 137.400 TC 40 995 5 56
1967073S15138 1967 23 SP EA CYNTHIA 1967-03-17 08:00:00 TS -12.8045 137.649 995 bom main 85 85 P_____O__PP_P_ SH251967 -12.4904 137.919 -1 -13.0000 137.300 995 -13.2115 137.407 TC 40 995 -12.4645 137.869 7 -13.1703 137.478 TC 40 995 5 68
1967073S15138 1967 23 SP EA CYNTHIA 1967-03-17 09:00:00 TS -12.7818 137.739 main 94 94 P_____P__PP_P_ SH251967 -12.4975 138.023 -1 -12.9785 137.397 995 -13.1411 137.465 TC 40 995 -12.4637 137.987 7 -13.1125 137.540 TC 40 995 6 84
1967073S15138 1967 23 SP EA CYNTHIA 1967-03-17 11:00:00 TS -12.7745 137.930 main 112 112 P_____P__PO_P_ SH251967 -12.5495 138.214 -1 -12.9915 137.637 995 -13.0319 137.611 TC 40 995 -12.5000 138.200 7 -13.0245 137.703 TC 40 995 6 90
1967073S15138 1967 23 SP EA CYNTHIA 1967-03-17 11:30:00 TS -12.7832 137.977 995 bom main 122 122 P_____O__PP_P_ SH251967 -12.5724 138.258 -1 -13.0000 137.700 995 -13.0137 137.654 TC 40 995 -12.5300 138.243 7 -13.0103 137.751 TC 40 995 6 102
1967073S15138 1967 23 SP EA CYNTHIA 1967-03-17 12:00:00 TS -12.7933 138.024 main 122 122 O_____P__OP_O_ jtwc_sh SH251967 -12.6000 138.300 -1 -12.9960 137.759 995 -13.0000 137.700 TC 40 995 -12.5637 138.284 7 -13.0000 137.800 TC 40 995 6 113
1967073S15138 1967 23 SP EA CYNTHIA 1967-03-17 15:00:00 TS -12.9199 138.313 main 156 156 P_____P__PP_P_ SH251967 -12.8625 138.537 -1 -12.9893 138.119 995 -13.0078 138.047 TC 37 995 -12.8297 138.504 7 -12.9676 138.135 TC 40 995 6 122
1967073S15138 1967 23 SP EA CYNTHIA 1967-03-17 17:30:00 TS -13.1058 138.532 996 bom main 185 185 P_____O__PP_P_ SH251967 -13.1438 138.679 -1 -13.1000 138.400 996 -13.0795 138.347 TC 35 995 -13.1042 138.644 7 -13.0633 138.441 TC 40 995 7 133
1967073S15138 1967 23 SP EA CYNTHIA 1967-03-17 18:00:00 TS -13.1521 138.571 main 195 192 O_____P__OP_O_ jtwc_sh SH251967 -13.2000 138.700 -1 -13.1511 138.456 996 -13.1000 138.400 TC 35 996 -13.1616 138.667 7 -13.1000 138.500 TC 40 995 8 149
1967073S15138 1967 23 SP EA CYNTHIA 1967-03-17 21:00:00 TS -13.4820 138.766 main 208 205 P_____P__PP_P_ SH251967 -13.5300 138.788 -1 -13.5853 138.757 996 -13.2689 138.633 TC -13.5001 138.769 7 -13.4775 138.860 TC 37 996 7 154
1967073S15138 1967 23 SP EA CYNTHIA 1967-03-17 23:00:00 TS -13.7072 138.848 997 bom main 205 205 P_____O__PO_P_ SH251967 -13.7228 138.803 -1 -13.9000 138.900 997 -13.4263 138.737 TC -13.7000 138.800 7 -13.7712 139.042 TC 35 996 7 162
1967073S15138 1967 23 SP EA CYNTHIA 1967-03-18 00:00:00 TS -13.7994 138.872 main 212 207 O_____P__PP_O_ jtwc_sh SH251967 -13.8000 138.800 -1 -14.0124 138.948 997 -13.5153 138.775 TC -13.7689 138.808 7 -13.9000 139.100 TC 35 997 4 173
1967073S15138 1967 23 SP EA CYNTHIA 1967-03-18 03:00:00 TS -13.9982 138.877 main 207 194 P_____P__PP_P_ SH251967 -13.9150 138.773 -1 -14.2770 138.993 997 -13.8105 138.833 TC -13.9419 138.782 7 -14.1299 139.110 TC 35 997 4 191
1967073S15138 1967 23 SP EA CYNTHIA 1967-03-18 06:00:00 TS -14.1612 138.806 main 194 183 O_____P__PP_O_ jtwc_sh SH251967 -14.0000 138.700 -1 -14.4601 138.920 997 -14.1257 138.818 TC -14.0817 138.701 7 -14.3000 139.000 TC 35 997 4 205
1967073S15138 1967 23 SP EA CYNTHIA 1967-03-18 09:00:00 TS -14.3552 138.707 main 183 173 P_____P__PP_P_ SH251967 -14.1925 138.615 -1 -14.5967 138.765 997 -14.4318 138.737 TC -14.2100 138.585 7 -14.5075 138.922 TC 35 997 4 209
1967073S15138 1967 23 SP EA CYNTHIA 1967-03-18 11:00:00 TS -14.4837 138.619 main 173 173 P_____P__PO_P_ SH251967 -14.3338 138.542 -1 -14.6790 138.634 997 -14.6166 138.651 TC -14.3000 138.500 7 -14.6390 138.847 TC 35 997 5 213
1967073S15138 1967 23 SP EA CYNTHIA 1967-03-18 11:30:00 TS -14.5147 138.595 998 bom main 173 173 P_____O__PP_P_ SH251967 -14.3676 138.521 -1 -14.7000 138.600 998 -14.6592 138.626 TC -14.3240 138.479 7 -14.6700 138.825 TC 35 997 5 211
1967073S15138 1967 23 SP EA CYNTHIA 1967-03-18 12:00:00 TS -14.5593 138.578 main 175 157 O_____P__OP_O_ jtwc_sh SH251967 -14.4000 138.500 -1 -14.7274 138.572 998 -14.7000 138.600 TC 35 998 -14.3486 138.457 7 -14.7000 138.800 TC 35 998 5 216
1967073S15138 1967 23 SP EA CYNTHIA 1967-03-18 15:00:00 TS -14.7446 138.420 main 157 145 P_____P__PP_P_ SH251967 -14.5650 138.358 -1 -14.8832 138.372 998 -14.9088 138.416 TC 35 998 -14.5087 138.331 7 -14.8575 138.622 TC 35 998 5 222
1967073S15138 1967 23 SP EA CYNTHIA 1967-03-18 18:00:00 TS -14.9320 138.233 main 145 127 O_____P__PP_O_ jtwc_sh SH251967 -14.7000 138.200 -1 -15.0295 138.136 998 -15.0674 138.197 TC 35 998 -14.6854 138.206 7 -15.0000 138.400 TC 35 998 6 226
1967073S15138 1967 23 SP EA CYNTHIA 1967-03-18 21:00:00 TS -15.1294 138.009 main 127 113 ______P__PP_P_ SH251967 -1 -15.1744 137.892 998 -15.1922 137.955 TC 35 998 -14.8726 138.082 7 -15.1500 138.143 TC 35 998 6 230
1967073S15138 1967 23 SP EA CYNTHIA 1967-03-18 23:00:00 TS -15.2410 137.850 main 113 99 ______P__PO_P_ SH251967 -1 -15.2743 137.737 998 -15.2649 137.785 TC 35 998 -15.0000 138.000 7 -15.2500 137.975 TC 35 998 6 232
1967073S15138 1967 23 SP EA CYNTHIA 1967-03-18 23:30:00 TS -15.2865 137.803 998 bom main 99 99 ______O__P__P_ SH251967 -1 -15.3000 137.700 998 -15.2825 137.743 TC 35 998 7 -15.2750 137.936 TC 35 998 7 230
1967073S15138 1967 23 SP EA CYNTHIA 1967-03-19 00:00:00 TS -15.3131 137.757 main 99 70 ______P__O__O_ -1 -15.3261 137.664 998 -15.3000 137.700 TC 35 998 7 -15.3000 137.900 TC 35 998 5 231
1967073S15138 1967 23 SP EA CYNTHIA 1967-03-19 03:00:00 TS -15.4764 137.556 main 70 49 ______P_____P_ -1 -15.4897 137.471 999 TC 7 -15.4500 137.728 TC 32 999 5 228
1967073S15138 1967 23 SP EA CYNTHIA 1967-03-19 06:00:00 TS -15.6468 137.377 main 49 22 ______P_____O_ -1 -15.6623 137.303 1000 TC 7 -15.6000 137.600 TC 30 1000 5 227
1967073S15138 1967 23 SP EA CYNTHIA 1967-03-19 09:00:00 NR -15.8402 137.150 main 22 11 ______P_______ -1 -15.8402 137.150 1001 TC 7 TC 6 226
1967073S15138 1967 23 SP EA CYNTHIA 1967-03-19 10:00:00 NR -15.9000 137.100 1002 bom main 11 ______O_______ -1 -15.9000 137.100 1002 TC 7 TC 5 209

デジタル台風データ・検索

IBTrACS Databaseについて

本データベースは、米国NOAAが公開する1842年以降の世界の熱帯低気圧のベストトラックデータアーカイブInternational Best Track Archive for Climate Stewardship (IBTrACS)を、ウェブで閲覧しやすい形式に変換したものです。

最終更新日:2021-10-21